Flight Track Log - Related Links

Times and Time Zones

All times are in EDT time to prevent confusion due to time zone crossing. See the TAP56 flight status page for this flight to view local times or setup timezone preferences in your user account.

Time Position Orientation Groundspeed Altitude Reporting Facility
EDT Latitude Longitude Course Direction KTS MPH feet Rate Location/Type
Sat 04:08:00 PM -17.9258 -42.9775 29° Northeast  Level Estimated
Sat 04:09:00 PM -17.8117 -42.9122 29° Northeast  Level Estimated
Sat 04:10:00 PM -17.6977 -42.8469 29° Northeast  Level Estimated
Sat 04:11:00 PM -17.5836 -42.7816 29° Northeast  Level Estimated
Sat 04:12:00 PM -17.4694 -42.7165 29° Northeast  Level Estimated
Sat 04:13:00 PM -17.3553 -42.6514 29° Northeast  Level Estimated
Sat 04:14:00 PM -17.2412 -42.5864 29° Northeast  Level Estimated
Sat 04:15:00 PM -17.1270 -42.5215 29° Northeast  Level Estimated
Sat 04:16:00 PM -17.0128 -42.4567 28° Northeast  Level Estimated
Sat 04:17:00 PM -16.8986 -42.3920 28° Northeast  Level Estimated
Sat 04:18:00 PM -16.7843 -42.3273 28° Northeast  Level Estimated
Sat 04:19:00 PM -16.6701 -42.2627 28° Northeast  Level Estimated
Sat 04:20:00 PM -16.5558 -42.1982 28° Northeast  Level Estimated
Sat 04:21:00 PM -16.4415 -42.1338 28° Northeast  Level Estimated
Sat 04:22:00 PM -16.3272 -42.0695 28° Northeast  Level Estimated
Sat 04:23:00 PM -16.2128 -42.0052 28° Northeast  Level Estimated
Sat 04:24:00 PM -16.0985 -41.9410 28° Northeast  Level Estimated
Sat 04:25:00 PM -15.9841 -41.8769 28° Northeast  Level Estimated
Sat 04:26:00 PM -15.8697 -41.8128 28° Northeast  Level Estimated
Sat 04:27:00 PM -15.7553 -41.7488 28° Northeast  Level Estimated
Sat 04:28:00 PM -15.6409 -41.6849 28° Northeast  Level Estimated
Sat 04:29:00 PM -15.5264 -41.6211 28° Northeast  Level Estimated
Sat 04:30:00 PM -15.4120 -41.5573 28° Northeast  Level Estimated
Sat 04:31:00 PM -15.2975 -41.4936 28° Northeast  Level Estimated
Sat 04:32:00 PM -15.1830 -41.4300 28° Northeast  Level Estimated
Sat 04:33:00 PM -15.0685 -41.3664 28° Northeast  Level Estimated
Sat 04:34:00 PM -14.9539 -41.3029 28° Northeast  Level Estimated
Sat 04:35:00 PM -14.8394 -41.2395 28° Northeast  Level Estimated
Sat 04:36:00 PM -14.7248 -41.1761 28° Northeast  Level Estimated
Sat 04:37:00 PM -14.6102 -41.1129 28° Northeast  Level Estimated
Sat 04:38:00 PM -14.4956 -41.0496 28° Northeast  Level Estimated
Sat 04:39:00 PM -14.3810 -40.9865 28° Northeast  Level Estimated
Sat 04:40:00 PM -14.2663 -40.9234 28° Northeast  Level Estimated
Sat 04:41:00 PM -14.1517 -40.8604 28° Northeast  Level Estimated
Sat 04:42:00 PM -14.0370 -40.7974 28° Northeast  Level Estimated
Sat 04:43:00 PM -13.9223 -40.7345 28° Northeast  Level Estimated
Sat 04:44:00 PM -13.8076 -40.6716 28° Northeast  Level Estimated
Sat 04:45:00 PM -13.6929 -40.6089 28° Northeast  Level Estimated
Sat 04:46:00 PM -13.5781 -40.5461 28° Northeast  Level Estimated
Sat 04:47:00 PM -13.4634 -40.4835 28° Northeast  Level Estimated
Sat 04:48:00 PM -13.3486 -40.4209 28° Northeast  Level Estimated
Sat 04:49:00 PM -13.2338 -40.3583 28° Northeast  Level Estimated
Sat 04:50:00 PM -13.1190 -40.2959 28° Northeast  Level Estimated
Sat 04:51:00 PM -13.0042 -40.2334 28° Northeast  Level Estimated
Sat 04:52:00 PM -12.8894 -40.1711 28° Northeast  Level Estimated
Sat 04:53:00 PM -12.7745 -40.1088 28° Northeast  Level Estimated
Sat 04:54:00 PM -12.6597 -40.0465 28° Northeast  Level Estimated
Sat 04:55:00 PM -12.5448 -39.9843 28° Northeast  Level Estimated
Sat 04:56:00 PM -12.4299 -39.9222 28° Northeast  Level Estimated
Sat 04:57:00 PM -12.3150 -39.8601 28° Northeast  Level Estimated
Sat 04:58:00 PM -12.2001 -39.7981 28° Northeast  Level Estimated
Sat 04:59:00 PM -12.0852 -39.7361 28° Northeast  Level Estimated
Sat 05:00:00 PM -11.9702 -39.6742 28° Northeast  Level Estimated
Sat 05:01:00 PM -11.8553 -39.6123 28° Northeast  Level Estimated
Sat 05:02:00 PM -11.7403 -39.5505 28° Northeast  Level Estimated
Sat 05:03:00 PM -11.6253 -39.4887 28° Northeast  Level Estimated
Sat 05:04:00 PM -11.5103 -39.4270 28° Northeast  Level Estimated
Sat 05:05:00 PM -11.3953 -39.3654 28° Northeast  Level Estimated
Sat 05:06:00 PM -11.2803 -39.3038 28° Northeast  Level Estimated
Sat 05:07:00 PM -11.1652 -39.2422 28° Northeast  Level Estimated
Sat 05:08:00 PM -11.0502 -39.1807 28° Northeast  Level Estimated
Sat 05:09:00 PM -10.9351 -39.1192 28° Northeast  Level Estimated
Sat 05:10:00 PM -10.8201 -39.0578 28° Northeast  Level Estimated
Sat 05:11:00 PM -10.7050 -38.9964 28° Northeast  Level Estimated
Sat 05:12:00 PM -10.5899 -38.9351 28° Northeast  Level Estimated
Sat 05:13:00 PM -10.4748 -38.8738 28° Northeast  Level Estimated
Sat 05:14:00 PM -10.3596 -38.8126 28° Northeast  Level Estimated
Sat 05:15:00 PM -10.2445 -38.7514 28° Northeast  Level Estimated
Sat 05:16:00 PM -10.1294 -38.6903 28° Northeast  Level Estimated
Sat 05:17:00 PM -10.0142 -38.6292 28° Northeast  Level Estimated
Sat 05:18:00 PM -9.8990 -38.5681 28° Northeast  Level Estimated
Sat 05:19:00 PM -9.7839 -38.5071 28° Northeast  Level Estimated
Sat 05:20:00 PM -9.6687 -38.4461 28° Northeast  Level Estimated
Sat 05:21:00 PM -9.5535 -38.3852 28° Northeast  Level Estimated
Sat 05:22:00 PM -9.4383 -38.3243 28° Northeast  Level Estimated
Sat 05:23:00 PM -9.3230 -38.2634 28° Northeast  Level Estimated
Sat 05:24:00 PM -9.2078 -38.2026 28° Northeast  Level Estimated
Sat 05:25:00 PM -9.0926 -38.1419 28° Northeast  Level Estimated
Sat 05:26:00 PM -8.9773 -38.0811 27° Northeast  Level Estimated
Sat 05:27:00 PM -8.8621 -38.0204 27° Northeast  Level Estimated
Sat 05:28:00 PM -8.7468 -37.9598 27° Northeast  Level Estimated
Sat 05:29:00 PM -8.6315 -37.8992 27° Northeast  Level Estimated
Sat 05:30:00 PM -8.5162 -37.8386 27° Northeast  Level Estimated
Sat 05:31:00 PM -8.4009 -37.7780 27° Northeast  Level Estimated
Sat 05:32:00 PM -8.2856 -37.7175 27° Northeast  Level Estimated
Sat 05:33:00 PM -8.1703 -37.6571 27° Northeast  Level Estimated
Sat 05:34:00 PM -8.0550 -37.5966 27° Northeast  Level Estimated
Sat 05:35:00 PM -7.9396 -37.5362 27° Northeast  Level Estimated
Sat 05:36:00 PM -7.8243 -37.4759 27° Northeast  Level Estimated
Sat 05:37:00 PM -7.7089 -37.4155 27° Northeast  Level Estimated
Sat 05:38:00 PM -7.5936 -37.3552 27° Northeast  Level Estimated
Sat 05:39:00 PM -7.4782 -37.2950 27° Northeast  Level Estimated
Sat 05:40:00 PM -7.3628 -37.2347 27° Northeast  Level Estimated
Sat 05:41:00 PM -7.2474 -37.1745 27° Northeast  Level Estimated
Sat 05:42:00 PM -7.1320 -37.1143 27° Northeast  Level Estimated
Sat 05:43:00 PM -7.0166 -37.0542 27° Northeast  Level Estimated
Sat 05:44:00 PM -6.9012 -36.9941 27° Northeast  Level Estimated
Sat 05:45:00 PM -6.7858 -36.9340 27° Northeast  Level Estimated
Sat 05:46:00 PM -6.6704 -36.8739 27° Northeast  Level Estimated
Sat 05:47:00 PM -6.5550 -36.8139 27° Northeast  Level Estimated
Sat 05:48:00 PM -6.4395 -36.7539 27° Northeast  Level Estimated
Sat 05:49:00 PM -6.3241 -36.6939 27° Northeast  Level Estimated
Sat 05:50:00 PM -6.2086 -36.6340 27° Northeast  Level Estimated
Sat 05:51:00 PM -6.0932 -36.5741 27° Northeast  Level Estimated
Sat 05:52:00 PM -5.9777 -36.5142 27° Northeast  Level Estimated
Sat 05:53:00 PM -5.8622 -36.4543 27° Northeast  Level Estimated
Sat 05:54:00 PM -5.7467 -36.3945 27° Northeast  Level Estimated
Sat 05:55:00 PM -5.6313 -36.3346 27° Northeast  Level Estimated
Sat 05:56:00 PM -5.5158 -36.2748 27° Northeast  Level Estimated
Sat 05:57:00 PM -5.4003 -36.2151 27° Northeast  Level Estimated
Sat 05:58:00 PM -5.2848 -36.1553 27° Northeast  Level Estimated
Sat 05:59:00 PM -5.1693 -36.0956 27° Northeast  Level Estimated
Sat 06:00:00 PM -5.0538 -36.0359 27° Northeast  Level Estimated
Sat 06:01:00 PM -4.9382 -35.9762 27° Northeast  Level Estimated
Sat 06:02:00 PM -4.8227 -35.9165 27° Northeast  Level Estimated
Sat 06:03:00 PM -4.7072 -35.8569 27° Northeast  Level Estimated
Sat 06:04:00 PM -4.5917 -35.7973 27° Northeast  Level Estimated
Sat 06:05:00 PM -4.4761 -35.7377 27° Northeast  Level Estimated
Sat 06:06:00 PM -4.3606 -35.6781 27° Northeast  Level Estimated
Sat 06:07:00 PM -4.2450 -35.6185 27° Northeast  Level Estimated
Sat 06:08:00 PM -4.1295 -35.5590 27° Northeast  Level Estimated
Sat 06:09:00 PM -4.0139 -35.4995 27° Northeast  Level Estimated
Sat 06:10:00 PM -3.8984 -35.4399 27° Northeast  Level Estimated
Sat 06:11:00 PM -3.7828 -35.3804 27° Northeast  Level Estimated
Sat 06:12:00 PM -3.6672 -35.3209 27° Northeast  Level Estimated
Sat 06:13:00 PM -3.5517 -35.2615 27° Northeast  Level Estimated
Sat 06:14:00 PM -3.4361 -35.2020 27° Northeast  Level Estimated
Sat 06:15:00 PM -3.3205 -35.1426 27° Northeast  Level Estimated
Sat 06:16:00 PM -3.2049 -35.0832 27° Northeast  Level Estimated
Sat 06:17:00 PM -3.0893 -35.0238 27° Northeast  Level Estimated
Sat 06:18:00 PM -2.9737 -34.9644 27° Northeast  Level Estimated
Sat 06:19:00 PM -2.8581 -34.9050 27° Northeast  Level Estimated
Sat 06:20:00 PM -2.7425 -34.8456 27° Northeast  Level Estimated
Sat 06:21:00 PM -2.6269 -34.7862 27° Northeast  Level Estimated
Sat 06:22:00 PM -2.5113 -34.7269 27° Northeast  Level Estimated
Sat 06:23:00 PM -2.3957 -34.6675 27° Northeast  Level Estimated
Sat 06:24:00 PM -2.2801 -34.6082 27° Northeast  Level Estimated
Sat 06:25:00 PM -2.1645 -34.5489 27° Northeast  Level Estimated
Sat 06:26:00 PM -2.0489 -34.4896 27° Northeast  Level Estimated
Sat 06:27:00 PM -1.9333 -34.4303 27° Northeast  Level Estimated
Sat 06:28:00 PM -1.8176 -34.3710 27° Northeast  Level Estimated
Sat 06:29:00 PM -1.7020 -34.3117 27° Northeast  Level Estimated
Sat 06:30:00 PM -1.5864 -34.2524 27° Northeast  Level Estimated
Sat 06:31:00 PM -1.4708 -34.1931 27° Northeast  Level Estimated
Sat 06:32:00 PM -1.3551 -34.1339 27° Northeast  Level Estimated
Sat 06:33:00 PM -1.2395 -34.0746 27° Northeast  Level Estimated
Sat 06:34:00 PM -1.1239 -34.0154 27° Northeast  Level Estimated
Sat 06:35:00 PM -1.0083 -33.9561 27° Northeast  Level Estimated
Sat 06:36:00 PM -0.8926 -33.8969 27° Northeast  Level Estimated
Sat 06:37:00 PM -0.7770 -33.8376 27° Northeast  Level Estimated
Sat 06:38:00 PM -0.6614 -33.7784 27° Northeast  Level Estimated
Sat 06:39:00 PM -0.5457 -33.7191 27° Northeast  Level Estimated
Sat 06:40:00 PM -0.4301 -33.6599 27° Northeast  Level Estimated
Sat 06:41:00 PM -0.3145 -33.6007 27° Northeast  Level Estimated
Sat 06:42:00 PM -0.1989 -33.5414 27° Northeast  Level Estimated
Sat 06:43:00 PM -0.0832 -33.4822 27° Northeast  Level Estimated
Sat 06:44:00 PM 0.0324 -33.4230 27° Northeast  Level Estimated
Sat 06:45:00 PM 0.1480 -33.3638 27° Northeast  Level Estimated
Sat 06:46:00 PM 0.2637 -33.3045 27° Northeast  Level Estimated
Sat 06:47:00 PM 0.3793 -33.2453 27° Northeast  Level Estimated
Sat 06:48:00 PM 0.4949 -33.1861 27° Northeast  Level Estimated
Sat 06:49:00 PM 0.6106 -33.1268 27° Northeast  Level Estimated
Sat 06:50:00 PM 0.7262 -33.0676 27° Northeast  Level Estimated
Sat 06:51:00 PM 0.8418 -33.0083 27° Northeast  Level Estimated
Sat 06:52:00 PM 0.9574 -32.9491 27° Northeast  Level Estimated
Sat 06:53:00 PM 1.0731 -32.8898 27° Northeast  Level Estimated
Sat 06:54:00 PM 1.1887 -32.8306 27° Northeast  Level Estimated
Sat 06:55:00 PM 1.3043 -32.7713 27° Northeast  Level Estimated
Sat 06:56:00 PM 1.4200 -32.7120 27° Northeast  Level Estimated
Sat 06:57:00 PM 1.5356 -32.6528 27° Northeast  Level Estimated
Sat 06:58:00 PM 1.6512 -32.5935 27° Northeast  Level Estimated
Sat 06:59:00 PM 1.7668 -32.5342 27° Northeast  Level Estimated
Sat 07:00:00 PM 1.8824 -32.4749 27° Northeast  Level Estimated
Sat 07:01:00 PM 1.9981 -32.4156 27° Northeast  Level Estimated
Sat 07:02:00 PM 2.1137 -32.3563 27° Northeast  Level Estimated
Sat 07:03:00 PM 2.2293 -32.2970 27° Northeast  Level Estimated
Sat 07:04:00 PM 2.3449 -32.2377 27° Northeast  Level Estimated
Sat 07:05:00 PM 2.4605 -32.1783 27° Northeast  Level Estimated
Sat 07:06:00 PM 2.5761 -32.1190 27° Northeast  Level Estimated
Sat 07:07:00 PM 2.6917 -32.0596 27° Northeast  Level Estimated
Sat 07:08:00 PM 2.8073 -32.0002 27° Northeast  Level Estimated
Sat 07:09:00 PM 2.9229 -31.9409 27° Northeast  Level Estimated
Sat 07:10:00 PM 3.0385 -31.8815 27° Northeast  Level Estimated
Sat 07:11:00 PM 3.1541 -31.8221 27° Northeast  Level Estimated
Sat 07:12:00 PM 3.2697 -31.7626 27° Northeast  Level Estimated
Sat 07:13:00 PM 3.3853 -31.7032 27° Northeast  Level Estimated
Sat 07:14:00 PM 3.5009 -31.6438 27° Northeast  Level Estimated
Sat 07:15:00 PM 3.6164 -31.5843 27° Northeast  Level Estimated
Sat 07:16:00 PM 3.7320 -31.5248 27° Northeast  Level Estimated
Sat 07:17:00 PM 3.8476 -31.4653 27° Northeast  Level Estimated
Sat 07:18:00 PM 3.9631 -31.4058 27° Northeast  Level Estimated
Sat 07:19:00 PM 4.0787 -31.3463 27° Northeast  Level Estimated
Sat 07:20:00 PM 4.1943 -31.2868 27° Northeast  Level Estimated
Sat 07:21:00 PM 4.3098 -31.2272 27° Northeast  Level Estimated
Sat 07:22:00 PM 4.4254 -31.1676 27° Northeast  Level Estimated
Sat 07:23:00 PM 4.5409 -31.1080 27° Northeast  Level Estimated
Sat 07:24:00 PM 4.6564 -31.0484 27° Northeast  Level Estimated
Sat 07:25:00 PM 4.7720 -30.9888 27° Northeast  Level Estimated
Sat 07:26:00 PM 4.8875 -30.9291 27° Northeast  Level Estimated
Sat 07:27:00 PM 5.0030 -30.8694 27° Northeast  Level Estimated
Sat 07:28:00 PM 5.1185 -30.8097 27° Northeast  Level Estimated
Sat 07:29:00 PM 5.2340 -30.7500 27° Northeast  Level Estimated
Sat 07:30:00 PM 5.3495 -30.6903 27° Northeast  Level Estimated
Sat 07:31:00 PM 5.4651 -30.6305 27° Northeast  Level Estimated
Sat 07:32:00 PM 5.5805 -30.5707 27° Northeast  Level Estimated
Sat 07:33:00 PM 5.6960 -30.5109 27° Northeast  Level Estimated
Sat 07:34:00 PM 5.8115 -30.4511 27° Northeast  Level Estimated
Sat 07:35:00 PM 5.9270 -30.3912 27° Northeast  Level Estimated
Sat 07:36:00 PM 6.0424 -30.3313 27° Northeast  Level Estimated
Sat 07:37:00 PM 6.1579 -30.2714 27° Northeast  Level Estimated
Sat 07:38:00 PM 6.2734 -30.2115 27° Northeast  Level Estimated
Sat 07:39:00 PM 6.3888 -30.1515 27° Northeast  Level Estimated
Sat 07:40:00 PM 6.5043 -30.0915 27° Northeast  Level Estimated
Sat 07:41:00 PM 6.6197 -30.0315 27° Northeast  Level Estimated
Sat 07:42:00 PM 6.7351 -29.9715 27° Northeast  Level Estimated
Sat 07:43:00 PM 6.8505 -29.9114 27° Northeast  Level Estimated
Sat 07:44:00 PM 6.9659 -29.8513 27° Northeast  Level Estimated
Sat 07:45:00 PM 7.0813 -29.7912 27° Northeast  Level Estimated
Sat 07:46:00 PM 7.1967 -29.7310 27° Northeast  Level Estimated
Sat 07:47:00 PM 7.3121 -29.6708 27° Northeast  Level Estimated
Sat 07:48:00 PM 7.4275 -29.6106 27° Northeast  Level Estimated
Sat 07:49:00 PM 7.5429 -29.5504 27° Northeast  Level Estimated
Sat 07:50:00 PM 7.6582 -29.4901 27° Northeast  Level Estimated
Sat 07:51:00 PM 7.7736 -29.4298 27° Northeast  Level Estimated
Sat 07:52:00 PM 7.8889 -29.3694 27° Northeast  Level Estimated
Sat 07:53:00 PM 8.0043 -29.3090 27° Northeast  Level Estimated
Sat 07:54:00 PM 8.1196 -29.2486 27° Northeast  Level Estimated
Sat 07:55:00 PM 8.2349 -29.1881 27° Northeast  Level Estimated
Sat 07:56:00 PM 8.3503 -29.1276 27° Northeast  Level Estimated
Sat 07:57:00 PM 8.4656 -29.0671 27° Northeast  Level Estimated
Sat 07:58:00 PM 8.5808 -29.0065 27° Northeast  Level Estimated
Sat 07:59:00 PM 8.6961 -28.9459 27° Northeast  Level Estimated
Sat 08:00:00 PM 8.8114 -28.8853 27° Northeast  Level Estimated
Sat 08:01:00 PM 8.9267 -28.8246 27° Northeast  Level Estimated
Sat 08:02:00 PM 9.0419 -28.7639 27° Northeast  Level Estimated
Sat 08:03:00 PM 9.1572 -28.7032 27° Northeast  Level Estimated
Sat 08:04:00 PM 9.2724 -28.6424 28° Northeast  Level Estimated
Sat 08:05:00 PM 9.3876 -28.5816 28° Northeast  Level Estimated
Sat 08:06:00 PM 9.5028 -28.5207 28° Northeast  Level Estimated
Sat 08:07:00 PM 9.6180 -28.4598 28° Northeast  Level Estimated
Sat 08:08:00 PM 9.7332 -28.3988 28° Northeast  Level Estimated
Sat 08:09:00 PM 9.8484 -28.3378 28° Northeast  Level Estimated
Sat 08:10:00 PM 9.9636 -28.2768 28° Northeast  Level Estimated
Sat 08:11:00 PM 10.0787 -28.2157 28° Northeast  Level Estimated
Sat 08:12:00 PM 10.1939 -28.1546 28° Northeast  Level Estimated
Sat 08:13:00 PM 10.3090 -28.0934 28° Northeast  Level Estimated
Sat 08:14:00 PM 10.4241 -28.0322 28° Northeast  Level Estimated
Sat 08:15:00 PM 10.5393 -27.9709 28° Northeast  Level Estimated
Sat 08:16:00 PM 10.6544 -27.9096 28° Northeast  Level Estimated
Sat 08:17:00 PM 10.7694 -27.8483 28° Northeast  Level Estimated
Sat 08:18:00 PM 10.8845 -27.7869 28° Northeast  Level Estimated
Sat 08:19:00 PM 10.9996 -27.7254 28° Northeast  Level Estimated
Sat 08:20:00 PM 11.1146 -27.6639 28° Northeast  Level Estimated
Sat 08:21:00 PM 11.2297 -27.6024 28° Northeast  Level Estimated
Sat 08:22:00 PM 11.3447 -27.5408 28° Northeast  Level Estimated
Sat 08:23:00 PM 11.4597 -27.4792 28° Northeast  Level Estimated
Sat 08:24:00 PM 11.5747 -27.4175 28° Northeast  Level Estimated
Sat 08:25:00 PM 11.6897 -27.3557 28° Northeast  Level Estimated
Sat 08:26:00 PM 11.8047 -27.2939 28° Northeast  Level Estimated
Sat 08:27:00 PM 11.9197 -27.2321 28° Northeast  Level Estimated
Sat 08:28:00 PM 12.0346 -27.1702 28° Northeast  Level Estimated
Sat 08:29:00 PM 12.1496 -27.1082 28° Northeast  Level Estimated
Sat 08:30:00 PM 12.2645 -27.0462 28° Northeast  Level Estimated
Sat 08:31:00 PM 12.3794 -26.9842 28° Northeast  Level Estimated
Sat 08:32:00 PM 12.4943 -26.9221 28° Northeast  Level Estimated
Sat 08:33:00 PM 12.6091 -26.8599 28° Northeast  Level Estimated
Sat 08:34:00 PM 12.7240 -26.7977 28° Northeast  Level Estimated
Sat 08:35:00 PM 12.8389 -26.7354 28° Northeast  Level Estimated
Sat 08:36:00 PM 12.9537 -26.6731 28° Northeast  Level Estimated
Sat 08:37:00 PM 13.0685 -26.6107 28° Northeast  Level Estimated
Sat 08:38:00 PM 13.1833 -26.5482 28° Northeast  Level Estimated
Sat 08:39:00 PM 13.2981 -26.4857 28° Northeast  Level Estimated
Sat 08:40:00 PM 13.4129 -26.4231 28° Northeast  Level Estimated
Sat 08:41:00 PM 13.5277 -26.3605 28° Northeast  Level Estimated
Sat 08:42:00 PM 13.6424 -26.2978 28° Northeast  Level Estimated
Sat 08:43:00 PM 13.7571 -26.2351 28° Northeast  Level Estimated
Sat 08:44:00 PM 13.8719 -26.1723 28° Northeast  Level Estimated
Sat 08:45:00 PM 13.9866 -26.1094 28° Northeast  Level Estimated
Sat 08:46:00 PM 14.1012 -26.0464 28° Northeast  Level Estimated
Sat 08:47:00 PM 14.2159 -25.9834 28° Northeast  Level Estimated
Sat 08:48:00 PM 14.3306 -25.9204 28° Northeast  Level Estimated
Sat 08:49:00 PM 14.4452 -25.8573 28° Northeast  Level Estimated
Sat 08:50:00 PM 14.5598 -25.7941 28° Northeast  Level Estimated
Sat 08:51:00 PM 14.6744 -25.7308 28° Northeast  Level Estimated
Sat 08:52:00 PM 14.7890 -25.6675 28° Northeast  Level Estimated
Sat 08:53:00 PM 14.9036 -25.6041 28° Northeast  Level Estimated
Sat 08:54:00 PM 15.0181 -25.5406 28° Northeast  Level Estimated
Sat 08:55:00 PM 15.1326 -25.4771 28° Northeast  Level Estimated
Sat 08:56:00 PM 15.2471 -25.4135 28° Northeast  Level Estimated
Sat 08:57:00 PM 15.3616 -25.3498 28° Northeast  Level Estimated
Sat 08:58:00 PM 15.4761 -25.2861 28° Northeast  Level Estimated
Sat 08:59:00 PM 15.5906 -25.2223 28° Northeast  Level Estimated
Sat 09:00:00 PM 15.7050 -25.1584 28° Northeast  Level Estimated
Sat 09:01:00 PM 15.8194 -25.0944 28° Northeast  Level Estimated
Sat 09:02:00 PM 15.9338 -25.0304 28° Northeast  Level Estimated
Sat 09:03:00 PM 16.0482 -24.9663 28° Northeast  Level Estimated
Sat 09:04:00 PM 16.1626 -24.9021 28° Northeast  Level Estimated
Sat 09:05:00 PM 16.2769 -24.8379 28° Northeast  Level Estimated
Sat 09:06:00 PM 16.3912 -24.7736 28° Northeast  Level Estimated
Sat 09:07:00 PM 16.5055 -24.7092 28° Northeast  Level Estimated
Sat 09:08:00 PM 16.6198 -24.6447 28° Northeast  Level Estimated
Sat 09:09:00 PM 16.7341 -24.5802 28° Northeast  Level Estimated
Sat 09:10:00 PM 16.8483 -24.5155 28° Northeast  Level Estimated
Sat 09:11:00 PM 16.9626 -24.4508 28° Northeast  Level Estimated
Sat 09:12:00 PM 17.0768 -24.3860 28° Northeast  Level Estimated
Sat 09:13:00 PM 17.1909 -24.3212 28° Northeast  Level Estimated
Sat 09:14:00 PM 17.3051 -24.2563 29° Northeast  Level Estimated
Sat 09:15:00 PM 17.4192 -24.1912 29° Northeast  Level Estimated
Sat 09:16:00 PM 17.5334 -24.1261 29° Northeast  Level Estimated
Sat 09:17:00 PM 17.6475 -24.0609 29° Northeast  Level Estimated
Sat 09:18:00 PM 17.7615 -23.9957 29° Northeast  Level Estimated
Sat 09:19:00 PM 17.8756 -23.9303 29° Northeast  Level Estimated
Sat 09:20:00 PM 17.9896 -23.8649 29° Northeast  Level Estimated
Sat 09:21:00 PM 18.1036 -23.7994 29° Northeast  Level Estimated
Sat 09:22:00 PM 18.2176 -23.7337 29° Northeast  Level Estimated
Sat 09:23:00 PM 18.3316 -23.6681 29° Northeast  Level Estimated
Sat 09:24:00 PM 18.4456 -23.6023 29° Northeast  Level Estimated
Sat 09:25:00 PM 18.5595 -23.5364 29° Northeast  Level Estimated
Sat 09:26:00 PM 18.6734 -23.4705 29° Northeast  Level Estimated
Sat 09:27:00 PM 18.7873 -23.4044 29° Northeast  Level Estimated
Sat 09:28:00 PM 18.9011 -23.3383 29° Northeast  Level Estimated
Sat 09:29:00 PM 19.0149 -23.2721 29° Northeast  Level Estimated
Sat 09:30:00 PM 19.1287 -23.2058 29° Northeast  Level Estimated
Sat 09:31:00 PM 19.2425 -23.1394 29° Northeast  Level Estimated
Sat 09:32:00 PM 19.3563 -23.0729 29° Northeast  Level Estimated
Sat 09:33:00 PM 19.4700 -23.0063 29° Northeast  Level Estimated
Sat 09:34:00 PM 19.5837 -22.9396 29° Northeast  Level Estimated
Sat 09:35:00 PM 19.6974 -22.8728 29° Northeast  Level Estimated
Sat 09:36:00 PM 19.8111 -22.8059 29° Northeast  Level Estimated
Sat 09:37:00 PM 19.9247 -22.7390 29° Northeast  Level Estimated
Sat 09:38:00 PM 20.0383 -22.6719 29° Northeast  Level Estimated
Sat 09:39:00 PM 20.1519 -22.6047 29° Northeast  Level Estimated
Sat 09:40:00 PM 20.2655 -22.5375 29° Northeast  Level Estimated
Sat 09:41:00 PM 20.3790 -22.4701 29° Northeast  Level Estimated
Sat 09:42:00 PM 20.4925 -22.4027 29° Northeast  Level Estimated
Sat 09:43:00 PM 20.6060 -22.3351 29° Northeast  Level Estimated
Sat 09:44:00 PM 20.7195 -22.2675 29° Northeast  Level Estimated
Sat 09:45:00 PM 20.8329 -22.1997 29° Northeast  Level Estimated
Sat 09:46:00 PM 20.9463 -22.1318 29° Northeast  Level Estimated
Sat 09:47:00 PM 21.0597 -22.0639 29° Northeast  Level Estimated
Sat 09:48:00 PM 21.1730 -21.9958 29° Northeast  Level Estimated
Sat 09:49:00 PM 21.2864 -21.9276 29° Northeast  Level Estimated
Sat 09:50:00 PM 21.3997 -21.8594 29° Northeast  Level Estimated
Sat 09:51:00 PM 21.5129 -21.7910 29° Northeast  Level Estimated
Sat 09:52:00 PM 21.6262 -21.7225 29° Northeast  Level Estimated
Sat 09:53:00 PM 21.7394 -21.6539 29° Northeast  Level Estimated
Sat 09:54:00 PM 21.8526 -21.5852 29° Northeast  Level Estimated
Sat 09:55:00 PM 21.9657 -21.5164 29° Northeast  Level Estimated
Sat 09:56:00 PM 22.0788 -21.4475 29° Northeast  Level Estimated
Sat 09:57:00 PM 22.1919 -21.3784 29° Northeast  Level Estimated
Sat 09:58:00 PM 22.3050 -21.3093 29° Northeast  Level Estimated
Sat 09:59:00 PM 22.4180 -21.2400 30° Northeast  Level Estimated
Sat 10:00:00 PM 22.5310 -21.1707 30° Northeast  Level Estimated
Sat 10:01:00 PM 22.6440 -21.1012 30° Northeast  Level Estimated
Sat 10:02:00 PM 22.7570 -21.0316 30° Northeast  Level Estimated
Sat 10:03:00 PM 22.8699 -20.9619 30° Northeast  Level Estimated
Sat 10:04:00 PM 22.9828 -20.8920 30° Northeast  Level Estimated
Sat 10:05:00 PM 23.0956 -20.8221 30° Northeast  Level Estimated
Sat 10:06:00 PM 23.2085 -20.7520 30° Northeast  Level Estimated
Sat 10:07:00 PM 23.3213 -20.6818 30° Northeast  Level Estimated
Sat 10:08:00 PM 23.4340 -20.6115 30° Northeast  Level Estimated
Sat 10:09:00 PM 23.5468 -20.5411 30° Northeast  Level Estimated
Sat 10:10:00 PM 23.6595 -20.4706 30° Northeast  Level Estimated
Sat 10:11:00 PM 23.7721 -20.3999 30° Northeast  Level Estimated
Sat 10:12:00 PM 23.8848 -20.3291 30° Northeast  Level Estimated
Sat 10:13:00 PM 23.9974 -20.2582 30° Northeast  Level Estimated
Sat 10:14:00 PM 24.1099 -20.1872 30° Northeast  Level Estimated
Sat 10:15:00 PM 24.2225 -20.1160 30° Northeast  Level Estimated
Sat 10:16:00 PM 24.3350 -20.0448 30° Northeast  Level Estimated
Sat 10:17:00 PM 24.4475 -19.9733 30° Northeast  Level Estimated
Sat 10:18:00 PM 24.5599 -19.9018 30° Northeast  Level Estimated
Sat 10:19:00 PM 24.6723 -19.8301 30° Northeast  Level Estimated
Sat 10:20:00 PM 24.7847 -19.7583 30° Northeast  Level Estimated
Sat 10:21:00 PM 24.8970 -19.6864 30° Northeast  Level Estimated
Sat 10:22:00 PM 25.0093 -19.6143 30° Northeast  Level Estimated
Sat 10:23:00 PM 25.1216 -19.5422 30° Northeast  Level Estimated
Sat 10:24:00 PM 25.2338 -19.4698 30° Northeast  Level Estimated
Sat 10:25:00 PM 25.3460 -19.3974 30° Northeast  Level Estimated
Sat 10:26:00 PM 25.4582 -19.3248 30° Northeast  Level Estimated
Sat 10:27:00 PM 25.5703 -19.2521 30° Northeast  Level Estimated
Sat 10:28:00 PM 25.6824 -19.1792 30° Northeast  Level Estimated
Sat 10:29:00 PM 25.7945 -19.1062 30° Northeast  Level Estimated
Sat 10:30:00 PM 25.9065 -19.0331 30° Northeast  Level Estimated
Sat 10:31:00 PM 26.0185 -18.9598 30° Northeast  Level Estimated
Sat 10:32:00 PM 26.1304 -18.8864 30° Northeast  Level Estimated
Sat 10:33:00 PM 26.2423 -18.8128 31° Northeast  Level Estimated
Sat 10:34:00 PM 26.3542 -18.7391 31° Northeast  Level Estimated
Sat 10:35:00 PM 26.4660 -18.6653 31° Northeast  Level Estimated
Sat 10:36:00 PM 26.5778 -18.5913 31° Northeast  Level Estimated
Sat 10:37:00 PM 26.6896 -18.5171 31° Northeast  Level Estimated
Sat 10:38:00 PM 26.8013 -18.4429 31° Northeast  Level Estimated
Sat 10:39:00 PM 26.9130 -18.3685 31° Northeast  Level Estimated
Sat 10:40:00 PM 27.0246 -18.2939 31° Northeast  Level Estimated
Sat 10:41:00 PM 27.1362 -18.2192 31° Northeast  Level Estimated
Sat 10:42:00 PM 27.2477 -18.1443 31° Northeast  Level Estimated
Sat 10:43:00 PM 27.3593 -18.0693 31° Northeast  Level Estimated
Sat 10:44:00 PM 27.4708 -17.9941 31° Northeast  Level Estimated
Sat 10:45:00 PM 27.5822 -17.9188 31° Northeast  Level Estimated
Sat 10:46:00 PM 27.6936 -17.8433 31° Northeast  Level Estimated
Sat 10:47:00 PM 27.8050 -17.7677 31° Northeast  Level Estimated
Sat 10:48:00 PM 27.9163 -17.6919 31° Northeast  Level Estimated
Sat 10:49:00 PM 28.0275 -17.6160 31° Northeast  Level Estimated
Sat 10:50:00 PM 28.1388 -17.5399 31° Northeast  Level Estimated
Sat 10:51:00 PM 28.2500 -17.4636 31° Northeast  Level Estimated
Sat 10:52:00 PM 28.3611 -17.3872 31° Northeast  Level Estimated
Sat 10:53:00 PM 28.4722 -17.3106 31° Northeast  Level Estimated
Sat 10:54:00 PM 28.5833 -17.2339 31° Northeast  Level Estimated
Sat 10:55:00 PM 28.6943 -17.1570 31° Northeast  Level Estimated
Sat 10:56:00 PM 28.8053 -17.0799 31° Northeast  Level Estimated
Sat 10:57:00 PM 28.9162 -17.0027 31° Northeast  Level Estimated
Sat 10:58:00 PM 29.0271 -16.9253 31° Northeast  Level Estimated
Sat 10:59:00 PM 29.1379 -16.8478 31° Northeast  Level Estimated
Sat 11:00:00 PM 29.2487 -16.7701 31° Northeast  Level Estimated
Sat 11:01:00 PM 29.3595 -16.6922 32° Northeast  Level Estimated
Sat 11:02:00 PM 29.4702 -16.6141 32° Northeast  Level Estimated
Sat 11:03:00 PM 29.5809 -16.5359 32° Northeast  Level Estimated
Sat 11:04:00 PM 29.6915 -16.4575 32° Northeast  Level Estimated
Sat 11:05:00 PM 29.8020 -16.3789 32° Northeast  Level Estimated
Sat 11:06:00 PM 29.9126 -16.3001 32° Northeast  Level Estimated
Sat 11:07:00 PM 30.0230 -16.2212 32° Northeast  Level Estimated
Sat 11:08:00 PM 30.1335 -16.1421 32° Northeast  Level Estimated
Sat 11:09:00 PM 30.2439 -16.0628 32° Northeast  Level Estimated
Sat 11:10:00 PM 30.3542 -15.9834 32° Northeast  Level Estimated
Sat 11:11:00 PM 30.4645 -15.9037 32° Northeast  Level Estimated
Sat 11:12:00 PM 30.5747 -15.8239 32° Northeast  Level Estimated
Sat 11:13:00 PM 30.6849 -15.7439 32° Northeast  Level Estimated
Sat 11:14:00 PM 30.7950 -15.6637 32° Northeast  Level Estimated
Sat 11:15:00 PM 30.9051 -15.5834 32° Northeast  Level Estimated
Sat 11:16:00 PM 31.0152 -15.5028 32° Northeast  Level Estimated
Sat 11:17:00 PM 31.1252 -15.4221 32° Northeast  Level Estimated
Sat 11:18:00 PM 31.2351 -15.3412 32° Northeast  Level Estimated
Sat 11:19:00 PM 31.3450 -15.2601 32° Northeast  Level Estimated
Sat 11:20:00 PM 31.4548 -15.1788 32° Northeast  Level Estimated
Sat 11:21:00 PM 31.5646 -15.0973 32° Northeast  Level Estimated
Sat 11:22:00 PM 31.6744 -15.0156 32° Northeast  Level Estimated
Sat 11:23:00 PM 31.7840 -14.9337 32° Northeast  Level Estimated
Sat 11:24:00 PM 31.8937 -14.8516 32° Northeast  Level Estimated
Sat 11:25:00 PM 32.0032 -14.7694 32° Northeast  Level Estimated
Sat 11:26:00 PM 32.1128 -14.6869 33° Northeast  Level Estimated
Sat 11:27:00 PM 32.2222 -14.6042 33° Northeast  Level Estimated
Sat 11:28:00 PM 32.3316 -14.5214 33° Northeast  Level Estimated
Sat 11:29:00 PM 32.4410 -14.4383 33° Northeast  Level Estimated
Sat 11:30:00 PM 32.5503 -14.3551 33° Northeast  Level Estimated
Sat 11:31:00 PM 32.6596 -14.2716 33° Northeast  Level Estimated
Sat 11:32:00 PM 32.7688 -14.1879 33° Northeast  Level Estimated
Sat 11:33:00 PM 32.8779 -14.1040 33° Northeast  Level Estimated
Sat 11:34:00 PM 32.9870 -14.0200 33° Northeast  Level Estimated
Sat 11:35:00 PM 33.0960 -13.9357 33° Northeast  Level Estimated
Sat 11:36:00 PM 33.2050 -13.8512 33° Northeast  Level Estimated
Sat 11:37:00 PM 33.3139 -13.7665 33° Northeast  Level Estimated
Sat 11:38:00 PM 33.4228 -13.6816 33° Northeast  Level Estimated
Sat 11:39:00 PM 33.5316 -13.5964 33° Northeast  Level Estimated
Sat 11:40:00 PM 33.6403 -13.5111 33° Northeast  Level Estimated
Sat 11:41:00 PM 33.7490 -13.4255 33° Northeast  Level Estimated
Sat 11:42:00 PM 33.8576 -13.3397 33° Northeast  Level Estimated
Sat 11:43:00 PM 33.9662 -13.2537 33° Northeast  Level Estimated
Sat 11:44:00 PM 34.0747 -13.1675 33° Northeast  Level Estimated
Sat 11:45:00 PM 34.1831 -13.0810 33° Northeast  Level Estimated
Sat 11:46:00 PM 34.2915 -12.9944 33° Northeast  Level Estimated
Sat 11:47:00 PM 34.3998 -12.9075 33° Northeast  Level Estimated
Sat 11:48:00 PM 34.5081 -12.8204 34° Northeast  Level Estimated
Sat 11:49:00 PM 34.6163 -12.7330 34° Northeast  Level Estimated
Sat 11:50:00 PM 34.7244 -12.6455 34° Northeast  Level Estimated
Sat 11:51:00 PM 34.8325 -12.5577 34° Northeast  Level Estimated
Sat 11:52:00 PM 34.9405 -12.4696 34° Northeast  Level Estimated
Sat 11:53:00 PM 35.0484 -12.3814 34° Northeast  Level Estimated
Sat 11:54:00 PM 35.1563 -12.2929 34° Northeast  Level Estimated
Sat 11:55:00 PM 35.2641 -12.2042 34° Northeast  Level Estimated
Sat 11:56:00 PM 35.3719 -12.1152 34° Northeast  Level Estimated
Sat 11:57:00 PM 35.4795 -12.0260 34° Northeast  Level Estimated
Sat 11:58:00 PM 35.5872 -11.9365 34° Northeast  Level Estimated
Sat 11:59:00 PM 35.6947 -11.8469 34° Northeast  Level Estimated
Sun 12:00:00 AM 35.8022 -11.7569 34° Northeast  Level Estimated
Sun 12:01:00 AM 35.9096 -11.6668 34° Northeast  Level Estimated
Sun 12:02:00 AM 36.0170 -11.5763 34° Northeast  Level Estimated
Sun 12:03:00 AM 36.1243 -11.4857 34° Northeast  Level Estimated
Sun 12:04:00 AM 36.2315 -11.3948 34° Northeast  Level Estimated
Sun 12:05:00 AM 36.3386 -11.3036 34° Northeast  Level Estimated
Sun 12:06:00 AM 36.4457 -11.2122 34° Northeast  Level Estimated
Sun 12:07:00 AM 36.5527 -11.1205 35° Northeast  Level Estimated
Sun 12:08:00 AM 36.6597 -11.0286 35° Northeast  Level Estimated
Sun 12:09:00 AM 36.7665 -10.9365 35° Northeast  Level Estimated
Sun 12:10:00 AM 36.8733 -10.8440 35° Northeast  Level Estimated
Sun 12:11:00 AM 36.9800 -10.7513 35° Northeast  Level Estimated
Sun 12:12:00 AM 37.0867 -10.6584 35° Northeast  Level Estimated
Sun 12:13:00 AM 37.1933 -10.5652 35° Northeast  Level Estimated
Sun 12:14:00 AM 37.2998 -10.4717 35° Northeast  Level Estimated
Sun 12:15:00 AM 37.4062 -10.3780 35° Northeast  Level Estimated
Sun 12:16:00 AM 37.5126 -10.2839 35° Northeast  Level Estimated
Sun 12:17:00 AM 37.6188 -10.1897 35° Northeast  Level Estimated
Sun 12:18:00 AM 37.7251 -10.0951 35° Northeast  Level Estimated
Sun 12:19:00 AM 37.8312 -10.0003 35° Northeast  Level Estimated
Sun 12:20:00 AM 37.9372 -9.9052 35° Northeast  Level Estimated
Sun 12:21:00 AM 38.0432 -9.8099 35° Northeast  Level Estimated
Sun 12:22:00 AM 38.1491 -9.7142 35° Northeast  Level Estimated
Sun 12:23:00 AM 38.2549 -9.6183 35° Northeast  Level Estimated
Sun 12:24:00 AM 38.3607 -9.5221 35° Northeast  Level Estimated
Sun 12:25:00 AM 38.4663 -9.4256 36° Northeast  Level Estimated
Sun 12:26:00 AM 38.5719 -9.3289 36° Northeast  Level Estimated
Sun 12:27:00 AM 38.6774 -9.2318 36° Northeast  Level Estimated
Sun 12:28:00 AM 38.7813 -9.1359 36° Northeast  Level Estimated
Sun 12:29:00 AM 38.7813 -9.1359 38° Northeast  Level Estimated
Sun 12:30:00 AM 38.7813 -9.1359 38° Northeast  Level Estimated
Sun 12:31:00 AM 38.7813 -9.1359 38° Northeast  Level Estimated
Sun 12:32:00 AM 38.7813 -9.1359 38° Northeast  Level Estimated
Sun 12:33:00 AM 38.7813 -9.1359 38° Northeast  Level Estimated
Sun 12:34:00 AM 38.7813 -9.1359 38° Northeast  Level Estimated
Sun 12:35:00 AM 38.7813 -9.1359 38° Northeast  Level Estimated
Sun 12:36:00 AM 38.7813 -9.1359 38° Northeast  Level Estimated
Sun 12:37:00 AM 38.7813 -9.1359 38° Northeast  Level Estimated
Sun 12:38:00 AM 38.7813 -9.1359 38° Northeast  Level Estimated
Sun 12:39:00 AM 38.7813 -9.1359 38° Northeast  Level Estimated
Sun 12:40:00 AM 38.7813 -9.1359 38° Northeast  Level Estimated
Sun 12:41:00 AM 38.7813 -9.1359 38° Northeast  Level Estimated
Sun 12:42:00 AM 38.7813 -9.1359 38° Northeast  Level Estimated
Sun 12:43:00 AM 38.7813 -9.1359 38° Northeast  Level Estimated
Sun 12:44:00 AM 38.7813 -9.1359 38° Northeast  Level Estimated

Login

Don't have an account? Register now (free) for customized features, flight alerts, and more!